createdAt,value
2018-06-09T00:03:10.337Z,16.80
2018-06-09T00:08:40.441Z,16.70
2018-06-09T00:14:09.696Z,16.60
2018-06-09T00:19:39.364Z,16.60
2018-06-09T00:25:08.633Z,16.50
2018-06-09T00:30:37.913Z,16.50
2018-06-09T00:36:07.187Z,16.50
2018-06-09T00:41:36.410Z,16.50
2018-06-09T00:47:05.707Z,16.50
2018-06-09T00:52:34.895Z,16.60
2018-06-09T00:58:04.149Z,16.60
2018-06-09T01:03:33.395Z,16.60
2018-06-09T01:09:03.721Z,16.60
2018-06-09T01:14:32.933Z,16.50
2018-06-09T01:20:02.234Z,16.50
2018-06-09T01:25:31.502Z,16.40
2018-06-09T01:31:01.085Z,16.40
2018-06-09T01:36:30.506Z,16.40
2018-06-09T01:41:59.523Z,16.40
2018-06-09T01:47:28.813Z,16.40
2018-06-09T01:52:58.079Z,16.40
2018-06-09T01:58:27.336Z,16.30
2018-06-09T02:03:56.537Z,16.30
2018-06-09T02:09:25.744Z,16.20
2018-06-09T02:14:54.938Z,16.20
2018-06-09T02:20:25.115Z,16.20
2018-06-09T02:25:54.404Z,16.10
2018-06-09T02:31:23.664Z,16.10
2018-06-09T02:36:52.912Z,16.10
2018-06-09T02:42:22.121Z,16.00
2018-06-09T02:47:51.861Z,16.00
2018-06-09T02:53:21.159Z,16.00
2018-06-09T02:58:50.491Z,15.90
2018-06-09T03:04:19.917Z,15.90
2018-06-09T03:09:49.339Z,15.90
2018-06-09T03:15:18.563Z,15.90
2018-06-09T03:20:47.917Z,16.00
2018-06-09T03:26:17.209Z,16.00
2018-06-09T03:31:46.725Z,16.00
2018-06-09T03:37:16.220Z,16.00
2018-06-09T03:42:45.577Z,16.10
2018-06-09T03:48:15.021Z,16.10
2018-06-09T03:53:44.332Z,16.20
2018-06-09T03:59:13.710Z,16.20
2018-06-09T04:04:43.152Z,16.30
2018-06-09T04:10:12.518Z,16.50
2018-06-09T04:15:52.277Z,16.60
2018-06-09T04:21:21.525Z,16.70
2018-06-09T04:26:50.934Z,16.80
2018-06-09T04:32:20.376Z,17.00
2018-06-09T04:37:49.728Z,17.00
2018-06-09T04:43:19.009Z,17.10
2018-06-09T04:48:49.564Z,17.20
2018-06-09T04:54:19.063Z,17.30
2018-06-09T04:59:48.372Z,17.30
2018-06-09T05:05:17.942Z,17.40
2018-06-09T05:10:47.250Z,17.40
2018-06-09T05:16:16.663Z,17.50
2018-06-09T05:21:46.556Z,17.70
2018-06-09T05:27:16.011Z,17.60
2018-06-09T05:32:45.575Z,17.70
2018-06-09T05:38:15.055Z,17.90
2018-06-09T05:43:44.504Z,18.00
2018-06-09T05:49:13.954Z,18.20
2018-06-09T05:54:43.372Z,18.30
2018-06-09T06:00:13.058Z,18.50
2018-06-09T06:05:42.721Z,18.70
2018-06-09T06:11:12.975Z,18.90
2018-06-09T06:16:42.362Z,19.20
2018-06-09T06:22:11.938Z,19.40
2018-06-09T06:27:42.891Z,19.70
2018-06-09T06:33:12.769Z,19.80
2018-06-09T06:38:42.219Z,19.90
2018-06-09T06:44:11.583Z,20.20
2018-06-09T06:49:40.997Z,20.20
2018-06-09T06:55:11.021Z,20.20
2018-06-09T07:00:40.461Z,20.30
2018-06-09T07:06:09.950Z,20.30
2018-06-09T07:11:41.131Z,20.60
2018-06-09T07:17:10.464Z,20.90
2018-06-09T07:22:40.299Z,20.90
2018-06-09T07:28:12.130Z,21.20
2018-06-09T07:33:42.790Z,21.30
2018-06-09T07:39:12.454Z,21.40
2018-06-09T07:44:41.783Z,21.40
2018-06-09T07:50:11.188Z,21.50
2018-06-09T07:55:41.525Z,21.40
2018-06-09T08:01:10.842Z,21.50
2018-06-09T08:06:40.235Z,21.40
2018-06-09T08:12:09.465Z,21.50
2018-06-09T08:17:38.818Z,21.60
2018-06-09T08:23:09.079Z,21.80
2018-06-09T08:28:38.356Z,22.20
2018-06-09T08:34:07.684Z,22.80
2018-06-09T08:39:36.920Z,23.00
2018-06-09T08:45:06.240Z,23.00
2018-06-09T08:50:35.902Z,23.10
2018-06-09T08:56:05.861Z,23.20
2018-06-09T09:01:35.146Z,23.00
2018-06-09T09:07:04.609Z,23.00
2018-06-09T09:12:33.846Z,23.00
2018-06-09T09:18:04.079Z,23.20
2018-06-09T09:23:33.349Z,23.30
2018-06-09T09:29:02.674Z,23.50
2018-06-09T09:34:32.003Z,24.00
2018-06-09T09:40:01.286Z,24.20
2018-06-09T09:45:30.626Z,24.00
2018-06-09T09:50:59.860Z,24.00
2018-06-09T09:56:29.160Z,24.20
2018-06-09T10:01:58.392Z,24.50
2018-06-09T10:07:27.627Z,24.90
2018-06-09T10:12:57.047Z,24.50
2018-06-09T10:18:26.393Z,24.40
2018-06-09T10:23:55.740Z,24.60
2018-06-09T10:29:25.964Z,24.50
2018-06-09T10:34:55.218Z,24.90
2018-06-09T10:40:24.514Z,25.10
2018-06-09T10:45:53.778Z,25.40
2018-06-09T10:51:23.047Z,25.50
2018-06-09T10:56:52.459Z,25.80
2018-06-09T11:02:21.736Z,26.10
2018-06-09T11:07:51.013Z,26.40
2018-06-09T11:13:23.174Z,26.70
2018-06-09T11:18:52.881Z,26.80
2018-06-09T11:24:24.668Z,26.70
2018-06-09T11:29:54.066Z,26.80
2018-06-09T11:35:25.449Z,26.90
2018-06-09T11:41:02.343Z,26.80
2018-06-09T11:46:32.571Z,26.80
2018-06-09T11:52:01.936Z,26.60
2018-06-09T11:57:31.243Z,26.70
2018-06-09T12:03:00.812Z,26.50
2018-06-09T12:08:30.081Z,26.60
2018-06-09T12:13:59.282Z,26.90
2018-06-09T12:19:29.271Z,27.20
2018-06-09T12:24:59.904Z,27.50
2018-06-09T12:30:32.646Z,27.50
2018-06-09T12:36:02.354Z,27.30
2018-06-09T12:41:34.835Z,27.00
2018-06-09T12:47:06.196Z,26.80
2018-06-09T12:52:36.604Z,27.00
2018-06-09T12:58:05.910Z,26.80
2018-06-09T13:03:37.226Z,26.70
2018-06-09T13:09:12.667Z,26.80
2018-06-09T13:14:42.770Z,27.00
2018-06-09T13:20:12.753Z,27.10
2018-06-09T13:25:42.161Z,27.60
2018-06-09T13:31:12.249Z,28.10
2018-06-09T13:36:42.088Z,28.50
2018-06-09T13:42:13.993Z,28.60
2018-06-09T13:47:45.228Z,28.30
2018-06-09T13:53:14.666Z,28.10
2018-06-09T13:58:44.240Z,28.40
2018-06-09T14:04:13.816Z,28.60
2018-06-09T14:09:43.667Z,29.00
2018-06-09T14:15:13.198Z,29.00
2018-06-09T14:20:42.523Z,28.90
2018-06-09T14:26:11.903Z,28.60
2018-06-09T14:31:41.267Z,28.10
2018-06-09T14:37:10.822Z,27.50
2018-06-09T14:42:40.466Z,27.10
2018-06-09T14:48:09.863Z,26.60
2018-06-09T14:53:39.172Z,25.80
2018-06-09T14:59:11.191Z,24.90
2018-06-09T15:04:40.508Z,24.20
2018-06-09T15:10:11.897Z,23.80
2018-06-09T15:15:41.320Z,23.40
2018-06-09T15:21:10.769Z,23.30
2018-06-09T15:26:42.076Z,23.20
2018-06-09T15:32:13.609Z,23.20
2018-06-09T15:37:43.026Z,23.30
2018-06-09T15:43:12.693Z,23.60
2018-06-09T15:48:42.302Z,23.70
2018-06-09T15:54:11.728Z,23.80
2018-06-09T15:59:41.283Z,23.50
2018-06-09T16:05:18.060Z,23.30
2018-06-09T16:10:52.956Z,23.10
2018-06-09T16:16:24.432Z,23.10
2018-06-09T16:21:53.953Z,23.00
2018-06-09T16:27:25.322Z,23.00
2018-06-09T16:32:54.640Z,23.10
2018-06-09T16:38:23.852Z,23.00
2018-06-09T16:43:54.257Z,23.00
2018-06-09T16:49:23.532Z,22.90
2018-06-09T16:54:52.939Z,22.80
2018-06-09T17:00:23.269Z,22.70
2018-06-09T17:05:53.396Z,22.70
2018-06-09T17:11:22.974Z,22.70
2018-06-09T17:16:54.332Z,22.60
2018-06-09T17:22:23.826Z,22.60
2018-06-09T17:27:54.296Z,22.60
2018-06-09T17:33:23.727Z,22.60
2018-06-09T17:38:53.194Z,22.50
2018-06-09T17:44:22.465Z,22.50
2018-06-09T17:49:51.816Z,22.50
2018-06-09T17:55:26.339Z,22.50
2018-06-09T18:00:56.782Z,22.50
2018-06-09T18:06:27.409Z,22.40
2018-06-09T18:11:56.743Z,22.40
2018-06-09T18:17:36.260Z,22.40
2018-06-09T18:23:05.623Z,22.40
2018-06-09T18:28:34.997Z,22.30
2018-06-09T18:34:04.604Z,22.30
2018-06-09T18:39:33.964Z,22.20
2018-06-09T18:45:03.468Z,22.20
2018-06-09T18:50:32.823Z,22.10
2018-06-09T18:56:02.429Z,22.10
2018-06-09T19:01:40.683Z,22.00
2018-06-09T19:07:11.173Z,21.90
2018-06-09T19:12:40.750Z,21.80
2018-06-09T19:18:10.478Z,21.70
2018-06-09T19:23:40.425Z,21.60
2018-06-09T19:29:11.171Z,21.50
2018-06-09T19:34:40.565Z,21.40
2018-06-09T19:40:09.833Z,21.30
2018-06-09T19:45:40.301Z,21.30
2018-06-09T19:51:09.781Z,21.20
2018-06-09T19:56:39.221Z,21.10
2018-06-09T20:02:10.016Z,21.10
2018-06-09T20:07:41.473Z,21.10
2018-06-09T20:13:11.021Z,21.10
2018-06-09T20:18:40.623Z,21.10
2018-06-09T20:24:10.505Z,21.00
2018-06-09T20:29:39.960Z,21.00
2018-06-09T20:35:11.259Z,20.90
2018-06-09T20:40:41.020Z,20.70
2018-06-09T20:46:12.611Z,20.70
2018-06-09T20:51:43.333Z,20.70
2018-06-09T20:57:13.035Z,20.60
2018-06-09T21:02:42.595Z,20.60
2018-06-09T21:08:12.999Z,20.60
2018-06-09T21:13:42.621Z,20.70
2018-06-09T21:19:11.961Z,20.70
2018-06-09T21:24:48.544Z,20.70
2018-06-09T21:30:22.676Z,20.70
2018-06-09T21:36:02.877Z,20.70
2018-06-09T21:41:37.446Z,20.60
2018-06-09T21:47:06.869Z,20.60
2018-06-09T21:52:36.319Z,20.60
2018-06-09T21:58:05.840Z,20.50
2018-06-09T22:03:35.341Z,20.40
2018-06-09T22:09:07.238Z,20.20
2018-06-09T22:14:37.717Z,20.10
2018-06-09T22:20:07.279Z,20.00
2018-06-09T22:25:41.732Z,19.80
2018-06-09T22:31:11.034Z,19.70
2018-06-09T22:36:40.483Z,19.60
2018-06-09T22:42:09.849Z,19.50
2018-06-09T22:47:40.575Z,19.40
2018-06-09T22:53:10.099Z,19.30
2018-06-09T22:58:39.457Z,19.20
2018-06-09T23:04:08.714Z,19.20
2018-06-09T23:09:37.950Z,19.20
2018-06-09T23:15:07.148Z,19.10
2018-06-09T23:20:36.555Z,19.10
2018-06-09T23:26:05.747Z,19.00
2018-06-09T23:31:35.009Z,19.00
2018-06-09T23:37:04.208Z,18.90
2018-06-09T23:42:33.980Z,18.90
2018-06-09T23:48:04.211Z,18.90
2018-06-09T23:53:33.404Z,18.90
2018-06-09T23:59:02.637Z,18.90
